sensor_id;sensor_type;location;lat;lon;timestamp;pressure;altitude;pressure_sealevel;temperature;humidity
34742;BME280;20968;42.696;23.360;2022-08-19T00:02:03;94981.44;;;25.94;49.44
34742;BME280;20968;42.696;23.360;2022-08-19T00:04:32;94990.84;;;25.97;48.89
34742;BME280;20968;42.696;23.360;2022-08-19T00:06:59;95000.47;;;25.94;49.51
34742;BME280;20968;42.696;23.360;2022-08-19T00:09:25;94989.44;;;25.88;49.47
34742;BME280;20968;42.696;23.360;2022-08-19T00:11:52;94994.94;;;25.69;50.00
34742;BME280;20968;42.696;23.360;2022-08-19T00:14:19;94990.69;;;25.61;49.96
34742;BME280;20968;42.696;23.360;2022-08-19T00:16:46;94993.84;;;25.65;50.39
34742;BME280;20968;42.696;23.360;2022-08-19T00:19:13;94996.66;;;25.65;50.21
34742;BME280;20968;42.696;23.360;2022-08-19T00:21:40;95003.47;;;25.62;50.34
34742;BME280;20968;42.696;23.360;2022-08-19T00:24:10;94998.84;;;25.57;50.48
34742;BME280;20968;42.696;23.360;2022-08-19T00:26:37;94996.31;;;25.61;50.05
34742;BME280;20968;42.696;23.360;2022-08-19T00:29:05;95001.81;;;25.59;49.94
34742;BME280;20968;42.696;23.360;2022-08-19T00:31:32;95004.66;;;25.59;50.44
34742;BME280;20968;42.696;23.360;2022-08-19T00:33:57;95015.34;;;25.60;50.62
34742;BME280;20968;42.696;23.360;2022-08-19T00:36:23;94995.09;;;25.54;50.92
34742;BME280;20968;42.696;23.360;2022-08-19T00:38:48;94993.19;;;25.57;50.62
34742;BME280;20968;42.696;23.360;2022-08-19T00:41:19;94994.50;;;25.56;50.83
34742;BME280;20968;42.696;23.360;2022-08-19T00:44:06;94993.59;;;25.53;50.85
34742;BME280;20968;42.696;23.360;2022-08-19T00:46:34;94992.28;;;25.37;50.79
34742;BME280;20968;42.696;23.360;2022-08-19T00:49:02;94988.19;;;25.31;50.80
34742;BME280;20968;42.696;23.360;2022-08-19T00:51:31;94989.88;;;25.34;50.87
34742;BME280;20968;42.696;23.360;2022-08-19T00:53:58;94994.19;;;25.35;50.84
34742;BME280;20968;42.696;23.360;2022-08-19T00:56:25;94993.00;;;25.38;51.07
34742;BME280;20968;42.696;23.360;2022-08-19T00:58:55;94997.16;;;25.37;50.62
34742;BME280;20968;42.696;23.360;2022-08-19T01:01:21;94992.69;;;25.34;50.98
34742;BME280;20968;42.696;23.360;2022-08-19T01:03:46;94997.00;;;25.35;51.11
34742;BME280;20968;42.696;23.360;2022-08-19T01:06:12;94993.34;;;25.25;50.91
34742;BME280;20968;42.696;23.360;2022-08-19T01:08:38;94994.75;;;25.17;51.24
34742;BME280;20968;42.696;23.360;2022-08-19T01:11:04;94999.41;;;25.21;50.86
34742;BME280;20968;42.696;23.360;2022-08-19T01:13:32;94997.72;;;25.18;51.85
34742;BME280;20968;42.696;23.360;2022-08-19T01:16:02;95005.63;;;25.20;51.73
34742;BME280;20968;42.696;23.360;2022-08-19T01:18:29;94991.09;;;25.23;52.08
34742;BME280;20968;42.696;23.360;2022-08-19T01:24:08;95001.38;;;25.28;52.28
34742;BME280;20968;42.696;23.360;2022-08-19T01:26:38;94984.72;;;25.23;51.76
34742;BME280;20968;42.696;23.360;2022-08-19T01:29:06;94991.34;;;25.18;52.24
34742;BME280;20968;42.696;23.360;2022-08-19T01:31:33;94991.06;;;25.07;52.42
34742;BME280;20968;42.696;23.360;2022-08-19T01:34:00;94990.19;;;25.21;51.83
34742;BME280;20968;42.696;23.360;2022-08-19T01:36:39;94984.78;;;25.16;51.82
34742;BME280;20968;42.696;23.360;2022-08-19T01:39:11;94982.25;;;25.03;52.20
34742;BME280;20968;42.696;23.360;2022-08-19T01:41:37;94978.19;;;24.96;52.50
34742;BME280;20968;42.696;23.360;2022-08-19T01:44:03;94985.31;;;24.97;52.31
34742;BME280;20968;42.696;23.360;2022-08-19T01:46:30;94984.16;;;25.00;52.13
34742;BME280;20968;42.696;23.360;2022-08-19T01:48:56;94989.94;;;25.10;51.76
34742;BME280;20968;42.696;23.360;2022-08-19T01:51:24;94991.66;;;25.22;52.05
34742;BME280;20968;42.696;23.360;2022-08-19T01:53:50;94993.53;;;25.27;51.40
34742;BME280;20968;42.696;23.360;2022-08-19T01:56:17;94995.34;;;25.32;51.12
34742;BME280;20968;42.696;23.360;2022-08-19T01:58:48;94994.59;;;25.31;51.34
34742;BME280;20968;42.696;23.360;2022-08-19T02:01:16;94994.59;;;25.31;51.40
34742;BME280;20968;42.696;23.360;2022-08-19T02:03:41;94998.31;;;25.17;51.85
34742;BME280;20968;42.696;23.360;2022-08-19T02:06:07;95003.47;;;25.28;51.20
34742;BME280;20968;42.696;23.360;2022-08-19T02:08:36;95004.53;;;25.16;51.77
34742;BME280;20968;42.696;23.360;2022-08-19T02:11:37;95003.13;;;25.24;51.39
34742;BME280;20968;42.696;23.360;2022-08-19T02:14:06;95000.22;;;25.15;51.72
34742;BME280;20968;42.696;23.360;2022-08-19T02:16:55;94995.97;;;25.23;51.93
34742;BME280;20968;42.696;23.360;2022-08-19T02:26:05;94993.03;;;24.97;52.00
34742;BME280;20968;42.696;23.360;2022-08-19T02:28:31;94998.19;;;25.08;51.88
34742;BME280;20968;42.696;23.360;2022-08-19T02:30:57;94999.88;;;24.86;52.36
34742;BME280;20968;42.696;23.360;2022-08-19T02:33:24;94993.06;;;24.72;52.70
34742;BME280;20968;42.696;23.360;2022-08-19T02:35:49;95000.97;;;24.91;52.65
34742;BME280;20968;42.696;23.360;2022-08-19T02:38:15;94996.56;;;24.80;52.04
34742;BME280;20968;42.696;23.360;2022-08-19T02:40:55;94994.72;;;24.75;52.19
34742;BME280;20968;42.696;23.360;2022-08-19T02:43:22;94995.88;;;24.72;52.08
34742;BME280;20968;42.696;23.360;2022-08-19T02:45:49;95001.69;;;24.74;52.16
34742;BME280;20968;42.696;23.360;2022-08-19T02:48:16;95000.06;;;24.64;52.38
34742;BME280;20968;42.696;23.360;2022-08-19T02:50:42;95005.72;;;24.64;52.44
34742;BME280;20968;42.696;23.360;2022-08-19T02:53:08;95008.75;;;24.58;52.73
34742;BME280;20968;42.696;23.360;2022-08-19T02:55:33;95015.00;;;24.42;53.27
34742;BME280;20968;42.696;23.360;2022-08-19T02:57:59;95014.09;;;24.47;53.57
34742;BME280;20968;42.696;23.360;2022-08-19T03:00:25;95010.38;;;24.37;53.80
34742;BME280;20968;42.696;23.360;2022-08-19T03:02:52;95007.25;;;24.26;54.28
34742;BME280;20968;42.696;23.360;2022-08-19T03:05:17;95005.94;;;24.27;54.02
34742;BME280;20968;42.696;23.360;2022-08-19T03:07:43;95008.78;;;24.19;54.86
34742;BME280;20968;42.696;23.360;2022-08-19T03:10:08;95002.94;;;24.25;54.35
34742;BME280;20968;42.696;23.360;2022-08-19T03:12:38;95005.00;;;24.24;54.22
34742;BME280;20968;42.696;23.360;2022-08-19T03:15:07;95009.31;;;24.25;54.52
34742;BME280;20968;42.696;23.360;2022-08-19T03:17:34;95006.53;;;24.18;54.75
34742;BME280;20968;42.696;23.360;2022-08-19T03:20:00;95009.41;;;24.10;54.70
34742;BME280;20968;42.696;23.360;2022-08-19T03:22:25;95006.91;;;24.22;54.49
34742;BME280;20968;42.696;23.360;2022-08-19T03:24:51;94995.97;;;24.26;54.08
34742;BME280;20968;42.696;23.360;2022-08-19T03:27:16;94993.97;;;24.19;54.46
34742;BME280;20968;42.696;23.360;2022-08-19T03:29:42;95009.63;;;24.36;54.11
34742;BME280;20968;42.696;23.360;2022-08-19T03:32:09;95000.03;;;24.08;54.58
34742;BME280;20968;42.696;23.360;2022-08-19T03:34:36;95005.03;;;24.17;54.65
34742;BME280;20968;42.696;23.360;2022-08-19T03:37:09;95007.22;;;23.94;55.05
34742;BME280;20968;42.696;23.360;2022-08-19T03:39:37;95019.47;;;24.21;54.29
34742;BME280;20968;42.696;23.360;2022-08-19T03:42:10;95016.59;;;24.28;54.03
34742;BME280;20968;42.696;23.360;2022-08-19T03:44:35;95008.16;;;24.28;53.64
34742;BME280;20968;42.696;23.360;2022-08-19T03:47:03;95017.31;;;24.36;53.54
34742;BME280;20968;42.696;23.360;2022-08-19T03:49:31;95018.19;;;24.14;54.49
34742;BME280;20968;42.696;23.360;2022-08-19T03:51:58;95031.13;;;24.17;54.55
34742;BME280;20968;42.696;23.360;2022-08-19T03:54:26;95033.28;;;24.33;53.81
34742;BME280;20968;42.696;23.360;2022-08-19T03:56:54;95029.16;;;24.34;53.46
34742;BME280;20968;42.696;23.360;2022-08-19T03:59:24;95040.25;;;24.33;54.10
34742;BME280;20968;42.696;23.360;2022-08-19T04:02:18;95035.38;;;24.33;54.25
34742;BME280;20968;42.696;23.360;2022-08-19T04:04:43;95044.53;;;24.41;53.74
34742;BME280;20968;42.696;23.360;2022-08-19T04:07:10;95046.38;;;24.46;53.65
34742;BME280;20968;42.696;23.360;2022-08-19T04:09:36;95041.53;;;24.39;53.27
34742;BME280;20968;42.696;23.360;2022-08-19T04:12:03;95039.31;;;24.30;54.45
34742;BME280;20968;42.696;23.360;2022-08-19T04:14:31;95043.66;;;24.24;54.42
34742;BME280;20968;42.696;23.360;2022-08-19T04:16:58;95053.59;;;24.25;54.45
34742;BME280;20968;42.696;23.360;2022-08-19T04:19:25;95051.50;;;24.33;54.35
34742;BME280;20968;42.696;23.360;2022-08-19T04:21:54;95051.63;;;24.42;53.73
34742;BME280;20968;42.696;23.360;2022-08-19T04:24:21;95049.94;;;24.46;53.52
34742;BME280;20968;42.696;23.360;2022-08-19T04:26:47;95052.03;;;24.46;53.89
34742;BME280;20968;42.696;23.360;2022-08-19T04:29:22;95041.88;;;24.43;53.82
34742;BME280;20968;42.696;23.360;2022-08-19T04:31:51;95056.78;;;24.29;53.85
34742;BME280;20968;42.696;23.360;2022-08-19T04:34:19;95054.38;;;24.25;54.23
34742;BME280;20968;42.696;23.360;2022-08-19T04:36:48;95056.94;;;24.31;54.01
34742;BME280;20968;42.696;23.360;2022-08-19T04:39:19;95048.56;;;24.23;53.91
34742;BME280;20968;42.696;23.360;2022-08-19T04:41:45;95054.69;;;24.36;54.43
34742;BME280;20968;42.696;23.360;2022-08-19T04:44:31;95055.09;;;24.26;53.86
34742;BME280;20968;42.696;23.360;2022-08-19T04:46:57;95048.81;;;24.10;54.33
34742;BME280;20968;42.696;23.360;2022-08-19T04:49:23;95054.53;;;23.88;54.98
34742;BME280;20968;42.696;23.360;2022-08-19T04:51:51;95046.56;;;24.09;54.60
34742;BME280;20968;42.696;23.360;2022-08-19T04:54:33;95054.22;;;24.16;54.34
34742;BME280;20968;42.696;23.360;2022-08-19T04:57:28;95048.81;;;24.10;54.40
34742;BME280;20968;42.696;23.360;2022-08-19T04:59:54;95057.94;;;24.26;54.08
34742;BME280;20968;42.696;23.360;2022-08-19T05:02:20;95062.75;;;24.33;54.05
34742;BME280;20968;42.696;23.360;2022-08-19T05:04:48;95056.75;;;24.36;54.03
34742;BME280;20968;42.696;23.360;2022-08-19T05:07:13;95058.00;;;24.50;53.58
34742;BME280;20968;42.696;23.360;2022-08-19T05:09:39;95061.06;;;24.44;54.25
34742;BME280;20968;42.696;23.360;2022-08-19T05:12:05;95061.81;;;24.69;53.21
34742;BME280;20968;42.696;23.360;2022-08-19T05:14:31;95064.19;;;24.80;53.37
34742;BME280;20968;42.696;23.360;2022-08-19T05:17:00;95059.28;;;24.81;53.68
34742;BME280;20968;42.696;23.360;2022-08-19T05:19:26;95059.69;;;24.77;53.59
34742;BME280;20968;42.696;23.360;2022-08-19T05:22:10;95062.41;;;24.92;53.32
34742;BME280;20968;42.696;23.360;2022-08-19T05:24:54;95061.19;;;25.03;52.77
34742;BME280;20968;42.696;23.360;2022-08-19T05:27:20;95061.53;;;25.07;52.92
34742;BME280;20968;42.696;23.360;2022-08-19T05:30:13;95071.63;;;25.17;52.74
34742;BME280;20968;42.696;23.360;2022-08-19T05:32:42;95062.34;;;25.24;52.67
34742;BME280;20968;42.696;23.360;2022-08-19T05:38:24;95066.47;;;25.47;52.05
34742;BME280;20968;42.696;23.360;2022-08-19T05:40:54;95069.03;;;25.53;51.44
34742;BME280;20968;42.696;23.360;2022-08-19T05:43:20;95054.75;;;25.68;51.67
34742;BME280;20968;42.696;23.360;2022-08-19T05:45:45;95058.28;;;25.76;51.26
34742;BME280;20968;42.696;23.360;2022-08-19T05:48:11;95074.38;;;25.99;50.26
34742;BME280;20968;42.696;23.360;2022-08-19T05:50:41;95063.31;;;25.94;50.13
34742;BME280;20968;42.696;23.360;2022-08-19T05:53:08;95071.25;;;25.96;50.74
34742;BME280;20968;42.696;23.360;2022-08-19T05:58:30;95060.00;;;26.22;49.98
34742;BME280;20968;42.696;23.360;2022-08-19T06:01:00;95067.09;;;26.40;49.51
34742;BME280;20968;42.696;23.360;2022-08-19T06:03:33;95068.25;;;26.54;49.41
34742;BME280;20968;42.696;23.360;2022-08-19T06:06:01;95068.78;;;26.69;49.27
34742;BME280;20968;42.696;23.360;2022-08-19T06:08:28;95071.66;;;26.78;49.07
34742;BME280;20968;42.696;23.360;2022-08-19T06:10:57;95073.50;;;26.93;48.98
34742;BME280;20968;42.696;23.360;2022-08-19T06:13:32;95082.81;;;27.03;48.33
34742;BME280;20968;42.696;23.360;2022-08-19T06:15:57;95074.16;;;27.01;48.92
34742;BME280;20968;42.696;23.360;2022-08-19T06:18:23;95067.31;;;26.77;49.15
34742;BME280;20968;42.696;23.360;2022-08-19T06:20:48;95078.28;;;26.90;49.36
34742;BME280;20968;42.696;23.360;2022-08-19T06:23:14;95086.56;;;27.15;49.31
34742;BME280;20968;42.696;23.360;2022-08-19T06:25:40;95083.94;;;27.26;48.55
34742;BME280;20968;42.696;23.360;2022-08-19T06:28:05;95063.09;;;27.31;48.59
34742;BME280;20968;42.696;23.360;2022-08-19T06:30:30;95071.00;;;27.33;48.15
34742;BME280;20968;42.696;23.360;2022-08-19T06:32:56;95072.69;;;27.45;47.76
34742;BME280;20968;42.696;23.360;2022-08-19T06:35:22;95085.88;;;27.24;48.75
34742;BME280;20968;42.696;23.360;2022-08-19T06:37:47;95073.84;;;27.33;48.44
34742;BME280;20968;42.696;23.360;2022-08-19T06:43:43;95076.38;;;27.38;48.14
34742;BME280;20968;42.696;23.360;2022-08-19T06:46:11;95080.63;;;27.65;46.42
34742;BME280;20968;42.696;23.360;2022-08-19T06:48:40;95070.31;;;27.51;46.78
34742;BME280;20968;42.696;23.360;2022-08-19T06:51:06;95078.84;;;27.79;46.57
34742;BME280;20968;42.696;23.360;2022-08-19T06:53:37;95076.91;;;27.72;46.44
34742;BME280;20968;42.696;23.360;2022-08-19T06:56:19;95071.72;;;27.97;46.30
34742;BME280;20968;42.696;23.360;2022-08-19T06:58:46;95072.91;;;28.13;45.74
34742;BME280;20968;42.696;23.360;2022-08-19T07:01:12;95073.66;;;28.04;46.51
34742;BME280;20968;42.696;23.360;2022-08-19T07:03:38;95083.50;;;27.94;46.62
34742;BME280;20968;42.696;23.360;2022-08-19T07:06:12;95084.88;;;28.21;45.40
34742;BME280;20968;42.696;23.360;2022-08-19T07:08:39;95084.56;;;28.17;46.04
34742;BME280;20968;42.696;23.360;2022-08-19T07:11:07;95094.53;;;28.46;46.07
34742;BME280;20968;42.696;23.360;2022-08-19T07:13:34;95089.44;;;28.64;45.69
34742;BME280;20968;42.696;23.360;2022-08-19T07:16:07;95088.97;;;28.67;44.67
34742;BME280;20968;42.696;23.360;2022-08-19T07:18:33;95078.97;;;28.76;44.03
34742;BME280;20968;42.696;23.360;2022-08-19T07:21:22;95086.03;;;28.65;44.64
34742;BME280;20968;42.696;23.360;2022-08-19T07:23:50;95077.63;;;28.86;44.43
34742;BME280;20968;42.696;23.360;2022-08-19T07:26:41;95078.34;;;28.96;43.23
34742;BME280;20968;42.696;23.360;2022-08-19T07:29:07;95082.06;;;28.99;42.97
34742;BME280;20968;42.696;23.360;2022-08-19T07:31:33;95071.84;;;29.15;43.40
34742;BME280;20968;42.696;23.360;2022-08-19T07:34:07;95075.22;;;29.32;42.93
34742;BME280;20968;42.696;23.360;2022-08-19T07:36:36;95070.72;;;29.38;43.18
34742;BME280;20968;42.696;23.360;2022-08-19T07:39:06;95071.81;;;29.54;42.21
34742;BME280;20968;42.696;23.360;2022-08-19T07:41:43;95068.25;;;29.54;43.25
34742;BME280;20968;42.696;23.360;2022-08-19T07:44:20;95074.72;;;29.66;41.50
34742;BME280;20968;42.696;23.360;2022-08-19T07:47:16;95069.88;;;29.78;42.27
34742;BME280;20968;42.696;23.360;2022-08-19T07:49:42;95071.44;;;29.90;42.11
34742;BME280;20968;42.696;23.360;2022-08-19T07:52:13;95079.66;;;29.96;42.37
34742;BME280;20968;42.696;23.360;2022-08-19T07:54:42;95070.03;;;30.01;42.51
34742;BME280;20968;42.696;23.360;2022-08-19T07:57:10;95065.47;;;30.28;41.25
34742;BME280;20968;42.696;23.360;2022-08-19T07:59:35;95078.56;;;30.54;41.08
34742;BME280;20968;42.696;23.360;2022-08-19T08:02:01;95068.88;;;30.68;40.90
34742;BME280;20968;42.696;23.360;2022-08-19T08:04:28;95072.72;;;30.73;40.32
34742;BME280;20968;42.696;23.360;2022-08-19T08:07:13;95076.03;;;30.69;40.65
34742;BME280;20968;42.696;23.360;2022-08-19T08:09:57;95069.03;;;30.82;40.59
34742;BME280;20968;42.696;23.360;2022-08-19T08:12:29;95074.84;;;30.95;39.63
34742;BME280;20968;42.696;23.360;2022-08-19T08:14:58;95069.91;;;30.84;39.67
34742;BME280;20968;42.696;23.360;2022-08-19T08:17:28;95068.81;;;31.00;39.34
34742;BME280;20968;42.696;23.360;2022-08-19T08:19:56;95061.78;;;31.01;39.83
34742;BME280;20968;42.696;23.360;2022-08-19T08:22:23;95064.16;;;31.28;39.13
34742;BME280;20968;42.696;23.360;2022-08-19T08:25:13;95061.06;;;31.35;38.05
34742;BME280;20968;42.696;23.360;2022-08-19T08:27:42;95058.22;;;31.47;38.87
34742;BME280;20968;42.696;23.360;2022-08-19T08:30:11;95058.34;;;31.60;38.03
34742;BME280;20968;42.696;23.360;2022-08-19T08:32:43;95053.38;;;31.72;38.74
34742;BME280;20968;42.696;23.360;2022-08-19T08:35:11;95057.81;;;31.75;37.76
34742;BME280;20968;42.696;23.360;2022-08-19T08:41:40;95049.72;;;32.06;37.55
34742;BME280;20968;42.696;23.360;2022-08-19T08:44:28;95034.44;;;32.13;37.36
34742;BME280;20968;42.696;23.360;2022-08-19T08:47:12;95045.41;;;32.30;36.82
34742;BME280;20968;42.696;23.360;2022-08-19T08:49:56;95043.38;;;32.19;35.90
34742;BME280;20968;42.696;23.360;2022-08-19T08:52:26;95045.75;;;32.36;35.65
34742;BME280;20968;42.696;23.360;2022-08-19T08:54:55;95044.88;;;32.44;34.83
34742;BME280;20968;42.696;23.360;2022-08-19T09:00:06;95040.75;;;32.59;35.40
34742;BME280;20968;42.696;23.360;2022-08-19T09:02:32;95034.13;;;32.81;35.29
34742;BME280;20968;42.696;23.360;2022-08-19T09:04:58;95030.88;;;32.87;34.73
34742;BME280;20968;42.696;23.360;2022-08-19T09:16:22;95020.19;;;33.26;33.13
34742;BME280;20968;42.696;23.360;2022-08-19T09:18:54;95020.22;;;33.39;32.26
34742;BME280;20968;42.696;23.360;2022-08-19T09:21:37;95022.53;;;33.42;31.79
34742;BME280;20968;42.696;23.360;2022-08-19T09:24:04;95016.28;;;33.46;31.78
34742;BME280;20968;42.696;23.360;2022-08-19T09:26:31;95014.38;;;33.50;32.83
34742;BME280;20968;42.696;23.360;2022-08-19T09:29:01;95012.28;;;33.64;32.43
34742;BME280;20968;42.696;23.360;2022-08-19T09:31:30;95010.03;;;33.90;30.93
34742;BME280;20968;42.696;23.360;2022-08-19T09:34:00;95008.25;;;34.10;30.56
34742;BME280;20968;42.696;23.360;2022-08-19T09:36:29;94998.09;;;34.22;28.92
34742;BME280;20968;42.696;23.360;2022-08-19T09:38:57;95001.22;;;34.41;29.18
34742;BME280;20968;42.696;23.360;2022-08-19T09:41:24;94999.84;;;34.42;28.97
34742;BME280;20968;42.696;23.360;2022-08-19T09:43:52;94995.03;;;34.31;29.15
34742;BME280;20968;42.696;23.360;2022-08-19T09:46:22;94996.66;;;34.21;28.30
34742;BME280;20968;42.696;23.360;2022-08-19T09:48:48;94992.16;;;34.31;29.20
34742;BME280;20968;42.696;23.360;2022-08-19T09:51:21;94983.59;;;34.47;29.24
34742;BME280;20968;42.696;23.360;2022-08-19T09:53:48;94988.50;;;34.73;28.70
34742;BME280;20968;42.696;23.360;2022-08-19T09:56:18;94996.56;;;34.92;29.05
34742;BME280;20968;42.696;23.360;2022-08-19T09:58:44;94985.34;;;34.83;27.81
34742;BME280;20968;42.696;23.360;2022-08-19T10:01:15;94983.91;;;34.82;27.90
34742;BME280;20968;42.696;23.360;2022-08-19T10:03:41;94984.41;;;34.78;27.48
34742;BME280;20968;42.696;23.360;2022-08-19T10:06:07;94978.91;;;34.82;27.32
34742;BME280;20968;42.696;23.360;2022-08-19T10:08:40;94980.00;;;34.75;28.06
34742;BME280;20968;42.696;23.360;2022-08-19T10:11:08;94973.81;;;34.96;27.94
34742;BME280;20968;42.696;23.360;2022-08-19T10:13:43;94975.06;;;35.06;28.40
34742;BME280;20968;42.696;23.360;2022-08-19T10:16:12;94970.63;;;35.19;28.79
34742;BME280;20968;42.696;23.360;2022-08-19T10:18:59;94975.84;;;35.40;28.63
34742;BME280;20968;42.696;23.360;2022-08-19T10:21:39;94966.47;;;35.22;27.92
34742;BME280;20968;42.696;23.360;2022-08-19T10:24:05;94968.09;;;35.42;28.62
34742;BME280;20968;42.696;23.360;2022-08-19T10:26:35;94970.03;;;35.53;28.24
34742;BME280;20968;42.696;23.360;2022-08-19T10:29:02;94967.22;;;35.71;28.74
34742;BME280;20968;42.696;23.360;2022-08-19T10:31:33;94962.38;;;35.90;27.95
34742;BME280;20968;42.696;23.360;2022-08-19T10:34:01;94960.59;;;35.99;28.34
34742;BME280;20968;42.696;23.360;2022-08-19T10:36:30;94962.34;;;36.23;27.51
34742;BME280;20968;42.696;23.360;2022-08-19T10:41:51;94950.38;;;36.46;26.90
34742;BME280;20968;42.696;23.360;2022-08-19T10:44:16;94959.59;;;36.60;27.95
34742;BME280;20968;42.696;23.360;2022-08-19T10:46:43;94954.78;;;36.66;27.26
34742;BME280;20968;42.696;23.360;2022-08-19T10:49:10;94957.69;;;36.49;27.75
34742;BME280;20968;42.696;23.360;2022-08-19T10:51:39;94950.75;;;36.73;27.05
34742;BME280;20968;42.696;23.360;2022-08-19T10:57:41;94937.88;;;36.74;27.04
34742;BME280;20968;42.696;23.360;2022-08-19T11:00:06;94944.13;;;36.86;28.23
34742;BME280;20968;42.696;23.360;2022-08-19T11:02:35;94940.97;;;36.80;26.44
34742;BME280;20968;42.696;23.360;2022-08-19T11:05:00;94934.88;;;36.53;26.46
34742;BME280;20968;42.696;23.360;2022-08-19T11:07:31;94934.41;;;36.78;27.10
34742;BME280;20968;42.696;23.360;2022-08-19T11:13:41;94924.38;;;36.96;27.25
34742;BME280;20968;42.696;23.360;2022-08-19T11:16:17;94932.50;;;37.02;27.31
34742;BME280;20968;42.696;23.360;2022-08-19T11:18:50;94921.91;;;37.06;27.61
34742;BME280;20968;42.696;23.360;2022-08-19T11:21:25;94930.63;;;36.91;26.42
34742;BME280;20968;42.696;23.360;2022-08-19T11:23:56;94930.31;;;36.83;26.01
34742;BME280;20968;42.696;23.360;2022-08-19T11:26:23;94918.94;;;37.04;26.46
34742;BME280;20968;42.696;23.360;2022-08-19T11:28:49;94923.47;;;37.29;27.13
34742;BME280;20968;42.696;23.360;2022-08-19T11:31:22;94922.56;;;37.24;27.13
34742;BME280;20968;42.696;23.360;2022-08-19T11:33:48;94910.66;;;37.32;27.10
34742;BME280;20968;42.696;23.360;2022-08-19T11:36:18;94907.97;;;37.18;27.58
34742;BME280;20968;42.696;23.360;2022-08-19T11:38:45;94907.75;;;37.12;26.79
34742;BME280;20968;42.696;23.360;2022-08-19T11:41:12;94895.22;;;37.23;25.42
34742;BME280;20968;42.696;23.360;2022-08-19T11:43:38;94903.25;;;37.27;26.91
34742;BME280;20968;42.696;23.360;2022-08-19T11:46:06;94898.75;;;37.41;26.92
34742;BME280;20968;42.696;23.360;2022-08-19T11:48:32;94891.72;;;37.65;26.72
34742;BME280;20968;42.696;23.360;2022-08-19T11:50:58;94892.00;;;37.73;25.70
34742;BME280;20968;42.696;23.360;2022-08-19T11:53:24;94900.50;;;37.69;25.79
34742;BME280;20968;42.696;23.360;2022-08-19T11:55:52;94898.13;;;37.83;26.67
34742;BME280;20968;42.696;23.360;2022-08-19T11:58:21;94891.25;;;37.92;25.44
34742;BME280;20968;42.696;23.360;2022-08-19T12:00:47;94887.03;;;37.95;26.33
34742;BME280;20968;42.696;23.360;2022-08-19T12:03:13;94876.78;;;37.90;25.39
34742;BME280;20968;42.696;23.360;2022-08-19T12:05:40;94878.19;;;38.11;25.72
34742;BME280;20968;42.696;23.360;2022-08-19T12:08:30;94878.00;;;38.26;24.87
34742;BME280;20968;42.696;23.360;2022-08-19T12:10:56;94881.06;;;38.32;25.16
34742;BME280;20968;42.696;23.360;2022-08-19T12:13:21;94868.31;;;38.39;24.91
34742;BME280;20968;42.696;23.360;2022-08-19T12:15:47;94859.88;;;38.45;25.26
34742;BME280;20968;42.696;23.360;2022-08-19T12:18:15;94862.66;;;37.98;25.10
34742;BME280;20968;42.696;23.360;2022-08-19T12:20:42;94852.25;;;37.68;25.53
34742;BME280;20968;42.696;23.360;2022-08-19T12:23:08;94856.66;;;37.71;24.71
34742;BME280;20968;42.696;23.360;2022-08-19T12:25:35;94854.34;;;37.65;25.63
34742;BME280;20968;42.696;23.360;2022-08-19T12:28:01;94846.47;;;37.46;25.53
34742;BME280;20968;42.696;23.360;2022-08-19T12:30:30;94835.97;;;37.34;25.48
34742;BME280;20968;42.696;23.360;2022-08-19T12:32:58;94841.72;;;37.34;25.73
34742;BME280;20968;42.696;23.360;2022-08-19T12:35:24;94850.25;;;37.32;26.60
34742;BME280;20968;42.696;23.360;2022-08-19T12:37:49;94836.72;;;37.55;26.03
34742;BME280;20968;42.696;23.360;2022-08-19T12:40:15;94837.88;;;37.68;25.88
34742;BME280;20968;42.696;23.360;2022-08-19T12:42:42;94837.25;;;37.50;25.54
34742;BME280;20968;42.696;23.360;2022-08-19T12:45:09;94838.03;;;37.52;25.23
34742;BME280;20968;42.696;23.360;2022-08-19T12:47:36;94839.88;;;37.63;25.35
34742;BME280;20968;42.696;23.360;2022-08-19T12:50:01;94833.50;;;37.67;25.40
34742;BME280;20968;42.696;23.360;2022-08-19T12:52:27;94831.13;;;37.81;25.67
34742;BME280;20968;42.696;23.360;2022-08-19T12:54:54;94829.22;;;38.11;25.60
34742;BME280;20968;42.696;23.360;2022-08-19T12:57:21;94828.50;;;38.10;25.00
34742;BME280;20968;42.696;23.360;2022-08-19T12:59:52;94821.88;;;37.84;25.22
34742;BME280;20968;42.696;23.360;2022-08-19T13:02:18;94823.22;;;37.60;25.43
34742;BME280;20968;42.696;23.360;2022-08-19T13:04:44;94822.59;;;37.63;25.77
34742;BME280;20968;42.696;23.360;2022-08-19T13:07:10;94822.72;;;37.67;25.67
34742;BME280;20968;42.696;23.360;2022-08-19T13:09:36;94825.84;;;37.73;25.72
34742;BME280;20968;42.696;23.360;2022-08-19T13:12:02;94825.59;;;37.67;25.63
34742;BME280;20968;42.696;23.360;2022-08-19T13:14:32;94817.53;;;37.62;25.74
34742;BME280;20968;42.696;23.360;2022-08-19T13:16:58;94821.13;;;37.62;25.80
34742;BME280;20968;42.696;23.360;2022-08-19T13:19:23;94813.78;;;37.57;25.61
34742;BME280;20968;42.696;23.360;2022-08-19T13:21:50;94815.34;;;37.41;24.74
34742;BME280;20968;42.696;23.360;2022-08-19T13:24:16;94807.56;;;37.24;25.54
34742;BME280;20968;42.696;23.360;2022-08-19T13:26:41;94811.94;;;37.06;25.29
34742;BME280;20968;42.696;23.360;2022-08-19T13:29:07;94811.25;;;36.68;25.57
34742;BME280;20968;42.696;23.360;2022-08-19T13:32:12;94805.03;;;36.76;25.92
34742;BME280;20968;42.696;23.360;2022-08-19T13:34:56;94800.28;;;36.82;26.43
34742;BME280;20968;42.696;23.360;2022-08-19T13:37:24;94801.91;;;37.07;25.41
34742;BME280;20968;42.696;23.360;2022-08-19T13:40:18;94810.00;;;37.12;25.23
34742;BME280;20968;42.696;23.360;2022-08-19T13:42:48;94799.19;;;37.11;25.81
34742;BME280;20968;42.696;23.360;2022-08-19T13:45:16;94792.16;;;37.16;25.56
34742;BME280;20968;42.696;23.360;2022-08-19T13:48:28;94796.09;;;37.45;26.00